sensor_id;sensor_type;location;lat;lon;timestamp;pressure;altitude;pressure_sealevel;temperature;humidity
54924;BME280;40825;52.270;20.984;2023-02-11T00:01:34;101861.88;;;1.24;91.46
54924;BME280;40825;52.270;20.984;2023-02-11T00:04:01;101859.09;;;1.24;91.42
54924;BME280;40825;52.270;20.984;2023-02-11T00:06:28;101863.30;;;1.24;91.34
54924;BME280;40825;52.270;20.984;2023-02-11T00:08:55;101861.38;;;1.24;91.26
54924;BME280;40825;52.270;20.984;2023-02-11T00:11:22;101855.70;;;1.25;91.11
54924;BME280;40825;52.270;20.984;2023-02-11T00:13:50;101845.71;;;1.25;90.88
54924;BME280;40825;52.270;20.984;2023-02-11T00:16:18;101837.65;;;1.25;90.83
54924;BME280;40825;52.270;20.984;2023-02-11T00:18:44;101838.42;;;1.27;90.70
54924;BME280;40825;52.270;20.984;2023-02-11T00:21:15;101837.95;;;1.29;90.63
54924;BME280;40825;52.270;20.984;2023-02-11T00:23:42;101835.23;;;1.30;90.40
54924;BME280;40825;52.270;20.984;2023-02-11T00:26:29;101834.81;;;1.31;90.17
54924;BME280;40825;52.270;20.984;2023-02-11T00:28:55;101829.88;;;1.34;90.02
54924;BME280;40825;52.270;20.984;2023-02-11T00:31:22;101825.89;;;1.36;89.84
54924;BME280;40825;52.270;20.984;2023-02-11T00:33:48;101821.95;;;1.41;89.74
54924;BME280;40825;52.270;20.984;2023-02-11T00:36:20;101818.83;;;1.43;89.32
54924;BME280;40825;52.270;20.984;2023-02-11T00:38:47;101811.16;;;1.45;89.02
54924;BME280;40825;52.270;20.984;2023-02-11T00:41:15;101802.11;;;1.47;88.55
54924;BME280;40825;52.270;20.984;2023-02-11T00:43:41;101796.48;;;1.50;88.65
54924;BME280;40825;52.270;20.984;2023-02-11T00:46:07;101788.38;;;1.53;88.22
54924;BME280;40825;52.270;20.984;2023-02-11T00:48:33;101774.50;;;1.56;88.07
54924;BME280;40825;52.270;20.984;2023-02-11T00:50:59;101760.02;;;1.58;87.79
54924;BME280;40825;52.270;20.984;2023-02-11T00:53:25;101755.36;;;1.59;87.71
54924;BME280;40825;52.270;20.984;2023-02-11T00:55:51;101752.29;;;1.61;87.43
54924;BME280;40825;52.270;20.984;2023-02-11T00:58:16;101741.59;;;1.60;87.32
54924;BME280;40825;52.270;20.984;2023-02-11T01:00:42;101736.55;;;1.59;87.24
54924;BME280;40825;52.270;20.984;2023-02-11T01:03:08;101727.65;;;1.59;87.11
54924;BME280;40825;52.270;20.984;2023-02-11T01:05:33;101720.56;;;1.57;87.13
54924;BME280;40825;52.270;20.984;2023-02-11T01:07:59;101719.15;;;1.57;87.11
54924;BME280;40825;52.270;20.984;2023-02-11T01:10:25;101716.80;;;1.56;86.86
54924;BME280;40825;52.270;20.984;2023-02-11T01:12:51;101714.59;;;1.57;86.99
54924;BME280;40825;52.270;20.984;2023-02-11T01:15:18;101710.32;;;1.58;86.73
54924;BME280;40825;52.270;20.984;2023-02-11T01:17:44;101697.86;;;1.58;86.76
54924;BME280;40825;52.270;20.984;2023-02-11T01:20:22;101687.52;;;1.58;86.65
54924;BME280;40825;52.270;20.984;2023-02-11T01:22:48;101676.58;;;1.59;86.64
54924;BME280;40825;52.270;20.984;2023-02-11T01:25:13;101664.96;;;1.60;86.68
54924;BME280;40825;52.270;20.984;2023-02-11T01:27:39;101654.75;;;1.57;86.18
54924;BME280;40825;52.270;20.984;2023-02-11T01:30:06;101648.25;;;1.58;86.19
54924;BME280;40825;52.270;20.984;2023-02-11T01:32:33;101640.95;;;1.57;86.18
54924;BME280;40825;52.270;20.984;2023-02-11T01:34:59;101637.23;;;1.57;86.23
54924;BME280;40825;52.270;20.984;2023-02-11T01:37:25;101640.96;;;1.57;86.20
54924;BME280;40825;52.270;20.984;2023-02-11T01:39:51;101641.65;;;1.57;86.02
54924;BME280;40825;52.270;20.984;2023-02-11T01:42:19;101645.83;;;1.57;85.92
54924;BME280;40825;52.270;20.984;2023-02-11T01:44:47;101653.85;;;1.58;85.90
54924;BME280;40825;52.270;20.984;2023-02-11T01:47:13;101667.61;;;1.59;85.80
54924;BME280;40825;52.270;20.984;2023-02-11T01:49:43;101670.79;;;1.62;85.87
54924;BME280;40825;52.270;20.984;2023-02-11T01:52:24;101669.27;;;1.63;85.98
54924;BME280;40825;52.270;20.984;2023-02-11T01:54:55;101663.29;;;1.64;85.74
54924;BME280;40825;52.270;20.984;2023-02-11T01:57:42;101647.78;;;1.64;85.80
54924;BME280;40825;52.270;20.984;2023-02-11T02:00:16;101632.03;;;1.64;85.58
54924;BME280;40825;52.270;20.984;2023-02-11T02:08:13;101618.38;;;1.58;85.60
54924;BME280;40825;52.270;20.984;2023-02-11T02:10:45;101613.66;;;1.58;85.67
54924;BME280;40825;52.270;20.984;2023-02-11T02:13:11;101596.88;;;1.57;85.54
54924;BME280;40825;52.270;20.984;2023-02-11T02:15:39;101582.61;;;1.55;85.57
54924;BME280;40825;52.270;20.984;2023-02-11T02:18:20;101579.66;;;1.55;85.55
54924;BME280;40825;52.270;20.984;2023-02-11T02:32:28;101568.27;;;1.47;85.74
54924;BME280;40825;52.270;20.984;2023-02-11T02:40:28;101550.77;;;1.43;85.79
54924;BME280;40825;52.270;20.984;2023-02-11T02:42:56;101529.24;;;1.42;85.69
54924;BME280;40825;52.270;20.984;2023-02-11T02:45:23;101527.48;;;1.43;85.62
54924;BME280;40825;52.270;20.984;2023-02-11T02:47:49;101535.57;;;1.42;85.69
54924;BME280;40825;52.270;20.984;2023-02-11T02:50:16;101535.41;;;1.42;85.76
54924;BME280;40825;52.270;20.984;2023-02-11T02:52:54;101533.24;;;1.43;85.73
54924;BME280;40825;52.270;20.984;2023-02-11T02:59:00;101536.77;;;1.45;85.81
54924;BME280;40825;52.270;20.984;2023-02-11T03:04:14;101526.70;;;1.46;85.62
54924;BME280;40825;52.270;20.984;2023-02-11T03:07:11;101518.02;;;1.48;85.65
54924;BME280;40825;52.270;20.984;2023-02-11T03:09:48;101513.61;;;1.48;85.43
54924;BME280;40825;52.270;20.984;2023-02-11T03:12:16;101522.67;;;1.49;85.33
54924;BME280;40825;52.270;20.984;2023-02-11T03:14:43;101513.88;;;1.49;85.39
54924;BME280;40825;52.270;20.984;2023-02-11T03:17:09;101503.47;;;1.50;85.27
54924;BME280;40825;52.270;20.984;2023-02-11T03:19:43;101495.78;;;1.49;85.13
54924;BME280;40825;52.270;20.984;2023-02-11T03:22:23;101494.00;;;1.50;85.15
54924;BME280;40825;52.270;20.984;2023-02-11T03:24:50;101487.13;;;1.50;84.92
54924;BME280;40825;52.270;20.984;2023-02-11T03:27:38;101484.62;;;1.51;84.80
54924;BME280;40825;52.270;20.984;2023-02-11T03:30:27;101491.50;;;1.53;84.71
54924;BME280;40825;52.270;20.984;2023-02-11T03:33:10;101478.78;;;1.55;84.37
54924;BME280;40825;52.270;20.984;2023-02-11T03:35:43;101475.45;;;1.55;84.33
54924;BME280;40825;52.270;20.984;2023-02-11T03:38:18;101462.30;;;1.52;84.13
54924;BME280;40825;52.270;20.984;2023-02-11T03:40:45;101458.95;;;1.52;84.03
54924;BME280;40825;52.270;20.984;2023-02-11T03:43:21;101455.37;;;1.51;83.89
54924;BME280;40825;52.270;20.984;2023-02-11T03:45:51;101462.36;;;1.51;83.76
54924;BME280;40825;52.270;20.984;2023-02-11T03:48:22;101457.90;;;1.52;83.98
54924;BME280;40825;52.270;20.984;2023-02-11T03:50:51;101452.77;;;1.53;83.68
54924;BME280;40825;52.270;20.984;2023-02-11T03:53:19;101450.78;;;1.54;83.53
54924;BME280;40825;52.270;20.984;2023-02-11T03:55:46;101450.26;;;1.54;83.29
54924;BME280;40825;52.270;20.984;2023-02-11T03:58:13;101445.18;;;1.53;83.02
54924;BME280;40825;52.270;20.984;2023-02-11T04:00:41;101435.98;;;1.54;82.82
54924;BME280;40825;52.270;20.984;2023-02-11T04:03:08;101420.29;;;1.50;82.64
54924;BME280;40825;52.270;20.984;2023-02-11T04:05:33;101410.96;;;1.48;82.89
54924;BME280;40825;52.270;20.984;2023-02-11T04:07:59;101400.72;;;1.47;82.87
54924;BME280;40825;52.270;20.984;2023-02-11T04:10:25;101393.38;;;1.46;82.82
54924;BME280;40825;52.270;20.984;2023-02-11T04:12:50;101387.56;;;1.44;82.54
54924;BME280;40825;52.270;20.984;2023-02-11T04:15:16;101390.29;;;1.43;82.61
54924;BME280;40825;52.270;20.984;2023-02-11T04:17:42;101383.59;;;1.41;82.47
54924;BME280;40825;52.270;20.984;2023-02-11T04:20:08;101380.33;;;1.40;82.60
54924;BME280;40825;52.270;20.984;2023-02-11T04:22:35;101384.84;;;1.41;82.68
54924;BME280;40825;52.270;20.984;2023-02-11T04:25:00;101381.23;;;1.40;82.64
54924;BME280;40825;52.270;20.984;2023-02-11T04:27:26;101373.20;;;1.39;82.53
54924;BME280;40825;52.270;20.984;2023-02-11T04:29:51;101367.09;;;1.39;82.24
54924;BME280;40825;52.270;20.984;2023-02-11T04:32:18;101364.00;;;1.34;82.09
54924;BME280;40825;52.270;20.984;2023-02-11T04:34:44;101360.73;;;1.33;82.09
54924;BME280;40825;52.270;20.984;2023-02-11T04:37:09;101359.32;;;1.34;82.28
54924;BME280;40825;52.270;20.984;2023-02-11T04:39:35;101352.50;;;1.33;82.09
54924;BME280;40825;52.270;20.984;2023-02-11T04:42:00;101343.60;;;1.33;81.88
54924;BME280;40825;52.270;20.984;2023-02-11T04:44:26;101333.90;;;1.31;81.86
54924;BME280;40825;52.270;20.984;2023-02-11T04:46:52;101318.89;;;1.30;81.87
54924;BME280;40825;52.270;20.984;2023-02-11T04:49:18;101307.77;;;1.29;81.77
54924;BME280;40825;52.270;20.984;2023-02-11T04:51:44;101294.55;;;1.27;81.46
54924;BME280;40825;52.270;20.984;2023-02-11T04:54:10;101288.30;;;1.26;81.45
54924;BME280;40825;52.270;20.984;2023-02-11T04:56:37;101285.27;;;1.25;81.43
54924;BME280;40825;52.270;20.984;2023-02-11T04:59:03;101286.86;;;1.24;81.44
54924;BME280;40825;52.270;20.984;2023-02-11T05:01:29;101283.79;;;1.23;81.35
54924;BME280;40825;52.270;20.984;2023-02-11T05:03:55;101279.09;;;1.22;81.40
54924;BME280;40825;52.270;20.984;2023-02-11T05:06:20;101283.41;;;1.21;81.21
54924;BME280;40825;52.270;20.984;2023-02-11T05:08:46;101290.91;;;1.21;81.10
54924;BME280;40825;52.270;20.984;2023-02-11T05:11:20;101285.45;;;1.22;81.05
54924;BME280;40825;52.270;20.984;2023-02-11T05:13:46;101275.38;;;1.23;80.96
54924;BME280;40825;52.270;20.984;2023-02-11T05:16:12;101268.38;;;1.25;80.77
54924;BME280;40825;52.270;20.984;2023-02-11T05:18:39;101259.11;;;1.27;80.90
54924;BME280;40825;52.270;20.984;2023-02-11T05:21:10;101252.10;;;1.30;80.81
54924;BME280;40825;52.270;20.984;2023-02-11T05:23:37;101244.98;;;1.31;80.67
54924;BME280;40825;52.270;20.984;2023-02-11T05:26:03;101238.61;;;1.32;80.71
54924;BME280;40825;52.270;20.984;2023-02-11T05:28:29;101238.07;;;1.32;80.65
54924;BME280;40825;52.270;20.984;2023-02-11T05:30:56;101241.45;;;1.31;80.45
54924;BME280;40825;52.270;20.984;2023-02-11T05:33:22;101246.48;;;1.32;80.47
54924;BME280;40825;52.270;20.984;2023-02-11T05:35:48;101247.92;;;1.34;80.51
54924;BME280;40825;52.270;20.984;2023-02-11T05:38:14;101252.77;;;1.35;80.52
54924;BME280;40825;52.270;20.984;2023-02-11T05:40:39;101253.54;;;1.36;80.51
54924;BME280;40825;52.270;20.984;2023-02-11T05:43:05;101247.85;;;1.35;80.23
54924;BME280;40825;52.270;20.984;2023-02-11T05:45:30;101252.62;;;1.37;80.43
54924;BME280;40825;52.270;20.984;2023-02-11T05:47:56;101252.09;;;1.37;80.23
54924;BME280;40825;52.270;20.984;2023-02-11T05:50:22;101244.45;;;1.39;80.22
54924;BME280;40825;52.270;20.984;2023-02-11T05:52:48;101241.09;;;1.40;80.13
54924;BME280;40825;52.270;20.984;2023-02-11T05:55:13;101239.66;;;1.40;80.27
54924;BME280;40825;52.270;20.984;2023-02-11T05:57:39;101231.22;;;1.40;79.97
54924;BME280;40825;52.270;20.984;2023-02-11T06:00:05;101221.20;;;1.41;79.92
54924;BME280;40825;52.270;20.984;2023-02-11T06:02:30;101219.98;;;1.40;79.98
54924;BME280;40825;52.270;20.984;2023-02-11T06:04:56;101215.77;;;1.40;79.99
54924;BME280;40825;52.270;20.984;2023-02-11T06:07:22;101218.09;;;1.42;80.01
54924;BME280;40825;52.270;20.984;2023-02-11T06:09:48;101219.23;;;1.43;80.05
54924;BME280;40825;52.270;20.984;2023-02-11T06:12:13;101215.08;;;1.45;80.00
54924;BME280;40825;52.270;20.984;2023-02-11T06:14:39;101205.29;;;1.47;80.16
54924;BME280;40825;52.270;20.984;2023-02-11T06:17:04;101203.61;;;1.46;79.99
54924;BME280;40825;52.270;20.984;2023-02-11T06:19:30;101203.39;;;1.46;79.93
54924;BME280;40825;52.270;20.984;2023-02-11T06:21:56;101201.24;;;1.47;79.81
54924;BME280;40825;52.270;20.984;2023-02-11T06:24:22;101195.95;;;1.48;79.74
54924;BME280;40825;52.270;20.984;2023-02-11T06:26:48;101199.14;;;1.49;80.01
54924;BME280;40825;52.270;20.984;2023-02-11T06:29:14;101189.29;;;1.50;79.92
54924;BME280;40825;52.270;20.984;2023-02-11T06:31:40;101195.84;;;1.51;79.88
54924;BME280;40825;52.270;20.984;2023-02-11T06:34:07;101186.20;;;1.51;79.69
54924;BME280;40825;52.270;20.984;2023-02-11T06:36:32;101182.83;;;1.54;79.83
54924;BME280;40825;52.270;20.984;2023-02-11T06:38:58;101171.71;;;1.55;79.80
54924;BME280;40825;52.270;20.984;2023-02-11T06:41:24;101168.42;;;1.55;79.78
54924;BME280;40825;52.270;20.984;2023-02-11T06:43:51;101173.59;;;1.56;79.91
54924;BME280;40825;52.270;20.984;2023-02-11T06:46:17;101162.58;;;1.57;79.93
54924;BME280;40825;52.270;20.984;2023-02-11T06:48:43;101168.64;;;1.61;79.80
54924;BME280;40825;52.270;20.984;2023-02-11T06:51:10;101169.84;;;1.64;79.73
54924;BME280;40825;52.270;20.984;2023-02-11T06:53:41;101167.60;;;1.66;79.70
54924;BME280;40825;52.270;20.984;2023-02-11T06:56:09;101171.13;;;1.70;79.90
54924;BME280;40825;52.270;20.984;2023-02-11T06:58:35;101165.73;;;1.72;79.73
54924;BME280;40825;52.270;20.984;2023-02-11T07:01:13;101148.91;;;1.74;79.62
54924;BME280;40825;52.270;20.984;2023-02-11T07:03:41;101142.09;;;1.76;79.61
54924;BME280;40825;52.270;20.984;2023-02-11T07:06:11;101136.52;;;1.76;79.50
54924;BME280;40825;52.270;20.984;2023-02-11T07:08:37;101143.02;;;1.75;79.75
54924;BME280;40825;52.270;20.984;2023-02-11T07:11:11;101145.70;;;1.75;79.99
54924;BME280;40825;52.270;20.984;2023-02-11T07:13:37;101151.56;;;1.74;80.04
54924;BME280;40825;52.270;20.984;2023-02-11T07:16:07;101156.33;;;1.73;80.20
54924;BME280;40825;52.270;20.984;2023-02-11T07:18:33;101157.42;;;1.73;80.39
54924;BME280;40825;52.270;20.984;2023-02-11T07:20:58;101154.52;;;1.72;80.55
54924;BME280;40825;52.270;20.984;2023-02-11T07:23:24;101154.18;;;1.69;80.76
54924;BME280;40825;52.270;20.984;2023-02-11T07:25:50;101154.08;;;1.66;81.15
54924;BME280;40825;52.270;20.984;2023-02-11T07:28:15;101156.89;;;1.63;81.27
54924;BME280;40825;52.270;20.984;2023-02-11T07:30:41;101154.17;;;1.62;81.53
54924;BME280;40825;52.270;20.984;2023-02-11T07:33:06;101145.27;;;1.59;81.87
54924;BME280;40825;52.270;20.984;2023-02-11T07:35:32;101141.38;;;1.57;82.10
54924;BME280;40825;52.270;20.984;2023-02-11T07:37:57;101144.52;;;1.53;82.87
54924;BME280;40825;52.270;20.984;2023-02-11T07:40:22;101139.02;;;1.49;83.52
54924;BME280;40825;52.270;20.984;2023-02-11T07:42:48;101132.47;;;1.47;83.44
54924;BME280;40825;52.270;20.984;2023-02-11T07:45:13;101126.40;;;1.44;83.84
54924;BME280;40825;52.270;20.984;2023-02-11T07:47:39;101127.39;;;1.40;84.59
54924;BME280;40825;52.270;20.984;2023-02-11T07:50:08;101125.92;;;1.39;85.38
54924;BME280;40825;52.270;20.984;2023-02-11T07:52:34;101130.12;;;1.39;85.28
54924;BME280;40825;52.270;20.984;2023-02-11T07:54:59;101128.70;;;1.39;85.54
54924;BME280;40825;52.270;20.984;2023-02-11T07:57:25;101126.48;;;1.38;85.93
54924;BME280;40825;52.270;20.984;2023-02-11T07:59:50;101129.39;;;1.39;85.94
54924;BME280;40825;52.270;20.984;2023-02-11T08:02:17;101127.37;;;1.40;86.04
54924;BME280;40825;52.270;20.984;2023-02-11T08:04:44;101122.34;;;1.42;86.13
54924;BME280;40825;52.270;20.984;2023-02-11T08:07:14;101122.22;;;1.44;86.17
54924;BME280;40825;52.270;20.984;2023-02-11T08:09:39;101125.89;;;1.46;86.15
54924;BME280;40825;52.270;20.984;2023-02-11T08:12:04;101120.35;;;1.48;86.14
54924;BME280;40825;52.270;20.984;2023-02-11T08:14:30;101110.38;;;1.54;86.46
54924;BME280;40825;52.270;20.984;2023-02-11T08:16:57;101112.69;;;1.59;86.92
54924;BME280;40825;52.270;20.984;2023-02-11T08:19:23;101109.02;;;1.61;87.22
54924;BME280;40825;52.270;20.984;2023-02-11T08:21:48;101114.46;;;1.60;88.13
54924;BME280;40825;52.270;20.984;2023-02-11T08:24:14;101113.20;;;1.63;87.89
54924;BME280;40825;52.270;20.984;2023-02-11T08:26:40;101095.05;;;1.62;88.35
54924;BME280;40825;52.270;20.984;2023-02-11T08:29:09;101089.27;;;1.60;88.74
54924;BME280;40825;52.270;20.984;2023-02-11T08:31:38;101087.48;;;1.58;88.98
54924;BME280;40825;52.270;20.984;2023-02-11T08:34:05;101083.95;;;1.54;89.33
54924;BME280;40825;52.270;20.984;2023-02-11T08:36:33;101086.16;;;1.49;89.00
54924;BME280;40825;52.270;20.984;2023-02-11T08:39:00;101095.15;;;1.49;89.02
54924;BME280;40825;52.270;20.984;2023-02-11T08:41:28;101091.06;;;1.45;89.46
54924;BME280;40825;52.270;20.984;2023-02-11T08:43:53;101088.05;;;1.43;89.81
54924;BME280;40825;52.270;20.984;2023-02-11T08:46:19;101075.51;;;1.44;89.49
54924;BME280;40825;52.270;20.984;2023-02-11T08:48:46;101071.29;;;1.47;89.86
54924;BME280;40825;52.270;20.984;2023-02-11T08:51:18;101063.14;;;1.48;90.29
54924;BME280;40825;52.270;20.984;2023-02-11T08:53:44;101052.30;;;1.49;90.44
54924;BME280;40825;52.270;20.984;2023-02-11T08:56:12;101034.41;;;1.47;90.88
54924;BME280;40825;52.270;20.984;2023-02-11T08:58:38;101034.40;;;1.47;90.87
54924;BME280;40825;52.270;20.984;2023-02-11T09:01:33;101028.23;;;1.48;91.22
54924;BME280;40825;52.270;20.984;2023-02-11T09:03:59;101026.20;;;1.49;91.32
54924;BME280;40825;52.270;20.984;2023-02-11T09:06:26;101017.77;;;1.54;90.92
54924;BME280;40825;52.270;20.984;2023-02-11T09:08:54;101012.27;;;1.55;91.13
54924;BME280;40825;52.270;20.984;2023-02-11T09:11:26;101005.61;;;1.55;91.33
54924;BME280;40825;52.270;20.984;2023-02-11T09:13:52;101001.45;;;1.54;91.51
54924;BME280;40825;52.270;20.984;2023-02-11T09:16:21;101006.64;;;1.53;91.73
54924;BME280;40825;52.270;20.984;2023-02-11T09:18:47;101003.45;;;1.53;91.95
54924;BME280;40825;52.270;20.984;2023-02-11T09:21:14;100998.21;;;1.55;91.81
54924;BME280;40825;52.270;20.984;2023-02-11T09:23:41;101009.48;;;1.55;91.93
54924;BME280;40825;52.270;20.984;2023-02-11T09:26:20;101005.98;;;1.57;91.98
54924;BME280;40825;52.270;20.984;2023-02-11T09:28:47;101007.72;;;1.57;92.35
54924;BME280;40825;52.270;20.984;2023-02-11T09:31:18;101005.02;;;1.58;92.35
54924;BME280;40825;52.270;20.984;2023-02-11T09:33:46;101011.56;;;1.60;92.11
54924;BME280;40825;52.270;20.984;2023-02-11T09:36:20;101020.77;;;1.61;92.23
54924;BME280;40825;52.270;20.984;2023-02-11T09:38:47;101021.73;;;1.60;92.51
54924;BME280;40825;52.270;20.984;2023-02-11T09:43:50;101046.64;;;1.62;92.49
54924;BME280;40825;52.270;20.984;2023-02-11T09:46:18;101053.08;;;1.62;93.10
54924;BME280;40825;52.270;20.984;2023-02-11T09:48:50;101057.52;;;1.64;93.14
54924;BME280;40825;52.270;20.984;2023-02-11T09:51:28;101060.91;;;1.63;94.37
54924;BME280;40825;52.270;20.984;2023-02-11T09:53:59;101053.56;;;1.63;94.22
54924;BME280;40825;52.270;20.984;2023-02-11T09:56:26;101035.31;;;1.61;94.32
54924;BME280;40825;52.270;20.984;2023-02-11T09:58:52;101017.08;;;1.58;95.05
54924;BME280;40825;52.270;20.984;2023-02-11T10:07:01;101008.23;;;1.50;97.24
54924;BME280;40825;52.270;20.984;2023-02-11T10:10:02;101018.59;;;1.50;96.65
54924;BME280;40825;52.270;20.984;2023-02-11T10:12:42;101020.35;;;1.47;97.36
54924;BME280;40825;52.270;20.984;2023-02-11T10:23:23;100999.04;;;1.44;98.09
54924;BME280;40825;52.270;20.984;2023-02-11T10:25:54;100977.68;;;1.43;98.02
54924;BME280;40825;52.270;20.984;2023-02-11T10:28:43;100975.43;;;1.43;98.46
54924;BME280;40825;52.270;20.984;2023-02-11T10:31:15;100964.29;;;1.44;98.84
54924;BME280;40825;52.270;20.984;2023-02-11T10:34:02;100955.90;;;1.46;98.55
54924;BME280;40825;52.270;20.984;2023-02-11T10:36:32;100947.24;;;1.47;99.08
54924;BME280;40825;52.270;20.984;2023-02-11T10:39:00;100948.20;;;1.48;99.14
54924;BME280;40825;52.270;20.984;2023-02-11T10:41:33;100942.23;;;1.51;98.80
54924;BME280;40825;52.270;20.984;2023-02-11T10:44:00;100939.76;;;1.53;99.09
54924;BME280;40825;52.270;20.984;2023-02-11T10:46:30;100938.02;;;1.56;99.17
54924;BME280;40825;52.270;20.984;2023-02-11T10:48:57;100941.31;;;1.58;98.95
54924;BME280;40825;52.270;20.984;2023-02-11T10:54:10;100927.25;;;1.63;98.58
54924;BME280;40825;52.270;20.984;2023-02-11T10:56:49;100919.13;;;1.64;98.87
54924;BME280;40825;52.270;20.984;2023-02-11T11:01:50;100919.19;;;1.65;99.91
54924;BME280;40825;52.270;20.984;2023-02-11T11:06:56;100916.06;;;1.67;99.22
54924;BME280;40825;52.270;20.984;2023-02-11T11:09:30;100914.77;;;1.68;99.59
54924;BME280;40825;52.270;20.984;2023-02-11T11:12:23;100921.56;;;1.71;99.73
54924;BME280;40825;52.270;20.984;2023-02-11T11:15:22;100932.71;;;1.72;99.70
54924;BME280;40825;52.270;20.984;2023-02-11T11:17:50;100947.80;;;1.74;99.77
54924;BME280;40825;52.270;20.984;2023-02-11T11:22:45;100965.35;;;1.77;99.71
54924;BME280;40825;52.270;20.984;2023-02-11T11:25:24;100958.33;;;1.79;99.70
54924;BME280;40825;52.270;20.984;2023-02-11T11:27:53;100956.20;;;1.79;99.91
54924;BME280;40825;52.270;20.984;2023-02-11T11:30:22;100951.02;;;1.78;99.98
54924;BME280;40825;52.270;20.984;2023-02-11T11:32:49;100945.74;;;1.78;99.63
54924;BME280;40825;52.270;20.984;2023-02-11T11:35:33;100939.05;;;1.78;99.89
54924;BME280;40825;52.270;20.984;2023-02-11T11:38:01;100936.64;;;1.81;99.17
54924;BME280;40825;52.270;20.984;2023-02-11T11:40:28;100934.39;;;1.82;99.30
54924;BME280;40825;52.270;20.984;2023-02-11T11:45:28;100926.96;;;1.81;99.75
54924;BME280;40825;52.270;20.984;2023-02-11T11:50:39;100915.77;;;1.83;99.93
54924;BME280;40825;52.270;20.984;2023-02-11T11:53:13;100912.32;;;1.84;100.00
54924;BME280;40825;52.270;20.984;2023-02-11T11:55:51;100894.21;;;1.86;100.00
54924;BME280;40825;52.270;20.984;2023-02-11T11:58:21;100891.92;;;1.86;100.00
54924;BME280;40825;52.270;20.984;2023-02-11T12:01:02;100894.93;;;1.86;100.00
54924;BME280;40825;52.270;20.984;2023-02-11T12:03:46;100889.17;;;1.88;100.00
54924;BME280;40825;52.270;20.984;2023-02-11T12:26:21;100891.98;;;1.99;100.00
54924;BME280;40825;52.270;20.984;2023-02-11T12:34:27;100896.11;;;2.03;100.00
54924;BME280;40825;52.270;20.984;2023-02-11T12:37:27;100893.95;;;2.03;100.00
54924;BME280;40825;52.270;20.984;2023-02-11T12:43:04;100904.27;;;2.08;100.00
54924;BME280;40825;52.270;20.984;2023-02-11T12:51:00;100884.28;;;2.10;100.00
54924;BME280;40825;52.270;20.984;2023-02-11T12:58:59;100877.86;;;2.18;100.00
54924;BME280;40825;52.270;20.984;2023-02-11T13:01:34;100885.72;;;2.20;100.00
54924;BME280;40825;52.270;20.984;2023-02-11T13:04:15;100887.54;;;2.24;100.00
54924;BME280;40825;52.270;20.984;2023-02-11T13:06:53;100879.73;;;2.27;100.00
54924;BME280;40825;52.270;20.984;2023-02-11T13:09:31;100890.23;;;2.30;100.00
54924;BME280;40825;52.270;20.984;2023-02-11T13:12:02;100887.04;;;2.30;100.00
54924;BME280;40825;52.270;20.984;2023-02-11T13:14:52;100885.44;;;2.31;100.00
54924;BME280;40825;52.270;20.984;2023-02-11T13:17:31;100896.91;;;2.32;100.00
54924;BME280;40825;52.270;20.984;2023-02-11T13:20:17;100886.58;;;2.36;100.00
54924;BME280;40825;52.270;20.984;2023-02-11T13:22:58;100877.77;;;2.39;100.00
54924;BME280;40825;52.270;20.984;2023-02-11T13:25:30;100892.67;;;2.39;100.00
54924;BME280;40825;52.270;20.984;2023-02-11T13:28:18;100902.08;;;2.40;100.00
54924;BME280;40825;52.270;20.984;2023-02-11T13:30:46;100883.18;;;2.43;100.00
54924;BME280;40825;52.270;20.984;2023-02-11T13:36:27;100902.01;;;2.45;100.00
54924;BME280;40825;52.270;20.984;2023-02-11T13:38:34;100898.93;;;2.46;100.00
54924;BME280;40825;52.270;20.984;2023-02-11T13:41:05;100886.89;;;2.50;100.00
54924;BME280;40825;52.270;20.984;2023-02-11T13:43:35;100889.58;;;2.53;100.00
54924;BME280;40825;52.270;20.984;2023-02-11T13:46:12;100891.16;;;2.53;100.00
54924;BME280;40825;52.270;20.984;2023-02-11T13:48:50;100876.97;;;2.55;100.00
54924;BME280;40825;52.270;20.984;2023-02-11T13:51:38;100885.39;;;2.55;100.00
54924;BME280;40825;52.270;20.984;2023-02-11T13:54:06;100885.13;;;2.54;100.00
54924;BME280;40825;52.270;20.984;2023-02-11T13:56:37;100887.55;;;2.55;100.00
54924;BME280;40825;52.270;20.984;2023-02-11T13:59:05;100882.72;;;2.56;100.00
54924;BME280;40825;52.270;20.984;2023-02-11T14:02:01;100884.03;;;2.57;100.00
54924;BME280;40825;52.270;20.984;2023-02-11T14:16:09;100894.85;;;2.62;100.00
54924;BME280;40825;52.270;20.984;2023-02-11T14:29:29;100904.68;;;2.69;100.00
54924;BME280;40825;52.270;20.984;2023-02-11T14:35:13;100907.48;;;2.73;100.00
54924;BME280;40825;52.270;20.984;2023-02-11T14:40:29;100914.13;;;2.76;100.00
54924;BME280;40825;52.270;20.984;2023-02-11T14:43:02;100913.50;;;2.77;100.00
54924;BME280;40825;52.270;20.984;2023-02-11T14:45:34;100916.09;;;2.78;100.00
54924;BME280;40825;52.270;20.984;2023-02-11T14:50:43;100921.20;;;2.82;100.00
54924;BME280;40825;52.270;20.984;2023-02-11T14:53:17;100922.70;;;2.83;100.00
54924;BME280;40825;52.270;20.984;2023-02-11T14:55:51;100923.67;;;2.84;100.00
54924;BME280;40825;52.270;20.984;2023-02-11T14:58:22;100928.80;;;2.86;100.00
54924;BME280;40825;52.270;20.984;2023-02-11T15:03:33;100929.54;;;2.87;100.00
54924;BME280;40825;52.270;20.984;2023-02-11T15:06:03;100921.91;;;2.88;100.00
54924;BME280;40825;52.270;20.984;2023-02-11T15:08:31;100929.80;;;2.88;100.00
54924;BME280;40825;52.270;20.984;2023-02-11T15:11:00;100931.29;;;2.89;100.00
54924;BME280;40825;52.270;20.984;2023-02-11T15:13:28;100933.45;;;2.91;100.00
54924;BME280;40825;52.270;20.984;2023-02-11T15:16:03;100927.85;;;2.93;100.00
54924;BME280;40825;52.270;20.984;2023-02-11T15:18:34;100925.04;;;2.95;100.00